Terminal Aerodrome Forecast
Issued by NWS

Home | Current Version | Previous Version | Graphics & Text | Print | Product List | Glossary On
Versions: 1 2 3 4 5 6 7 8 9 10 11 12 13 14
000
FTUS43 KGRB 092300
TAFCWA
TAF
KCWA 092327Z 1000/1024 33007KT P6SM SCT050 BKN070
     FM100100 VRB03KT P6SM FEW050 SCT070
     FM100200 VRB03KT P6SM SKC
     FM101500 17008KT P6SM SCT045
      AMD LTD TO CLD VIS AND WIND 1003/1011=

USA.gov is the U.S. government's official web portal to all federal, state and local government web resources and services.